Time;durP1;ratioP1;P1;durP2;ratioP2;P2;SDS_P1;SDS_P2;PMS_P1;PMS_P2;Temp;Humidity;BMP_temperature;BMP_pressure;BME280_temperature;BME280_humidity;BME280_pressure;Samples;Min_cycle;Max_cycle;Signal;HPM_P1;HPM_P2
2023/09/15 00:01:31;;;;;;;9.25;7.10;;;16.50;97.30;;;;;;5054832;28;20178;-86
2023/09/15 00:03:57;;;;;;;9.35;5.97;;;16.50;97.40;;;;;;5054129;28;20056;-86
2023/09/15 00:06:23;;;;;;;6.97;5.57;;;16.40;97.30;;;;;;5035357;28;20025;-86
2023/09/15 00:08:49;;;;;;;7.30;5.78;;;16.40;97.40;;;;;;5036780;28;20029;-86
2023/09/15 00:11:16;;;;;;;9.30;6.35;;;16.40;97.40;;;;;;5020464;28;20338;-86
2023/09/15 00:13:42;;;;;;;9.20;6.85;;;16.40;97.40;;;;;;5036741;28;20146;-86
2023/09/15 00:16:08;;;;;;;6.78;5.85;;;16.30;97.40;;;;;;5036529;28;20043;-87
2023/09/15 00:18:33;;;;;;;8.27;6.28;;;16.30;97.40;;;;;;5020464;28;20369;-86
2023/09/15 00:20:59;;;;;;;9.35;6.18;;;16.30;97.50;;;;;;5018825;28;20029;-85
2023/09/15 00:23:25;;;;;;;7.65;6.25;;;16.30;97.50;;;;;;5036645;28;20021;-86
2023/09/15 00:25:54;;;;;;;7.75;6.13;;;16.30;97.50;;;;;;5036256;28;20060;-86
2023/09/15 00:28:20;;;;;;;7.75;5.53;;;16.20;97.50;;;;;;5020718;28;20021;-86
2023/09/15 00:30:49;;;;;;;10.27;5.72;;;16.20;97.50;;;;;;5036389;28;20021;-86
2023/09/15 00:33:16;;;;;;;8.60;6.13;;;16.20;97.50;;;;;;5036819;28;20476;-86
2023/09/15 00:35:41;;;;;;;10.57;6.20;;;16.20;97.50;;;;;;5054237;28;20044;-84
2023/09/15 00:38:07;;;;;;;7.03;5.25;;;16.20;97.50;;;;;;5019094;28;20522;-85
2023/09/15 00:40:33;;;;;;;7.10;5.50;;;16.20;97.50;;;;;;5036593;28;20128;-85
2023/09/15 00:42:59;;;;;;;8.65;5.95;;;16.20;97.50;;;;;;4999914;28;20025;-86
2023/09/15 00:45:25;;;;;;;8.68;5.78;;;16.20;97.50;;;;;;5050383;28;20029;-86
2023/09/15 00:47:57;;;;;;;8.40;5.88;;;16.20;97.50;;;;;;5019709;28;20062;-85
2023/09/15 00:50:31;;;;;;;6.28;5.20;;;16.20;97.50;;;;;;5036371;28;20027;-86
2023/09/15 00:53:10;;;;;;;7.25;5.47;;;16.20;97.50;;;;;;5036070;28;20024;-86
2023/09/15 00:55:38;;;;;;;8.30;5.30;;;16.20;97.50;;;;;;5035635;28;20046;-86
2023/09/15 00:58:11;;;;;;;9.07;6.32;;;16.10;97.50;;;;;;5019487;28;20056;-87
2023/09/15 01:00:44;;;;;;;8.15;5.90;;;16.10;97.50;;;;;;5017058;28;20060;-86
2023/09/15 01:03:17;;;;;;;6.53;5.38;;;16.10;97.60;;;;;;5020204;28;20119;-86
2023/09/15 01:05:43;;;;;;;6.72;5.50;;;16.10;97.60;;;;;;5035891;28;20487;-86
2023/09/15 01:08:10;;;;;;;6.78;5.63;;;16.00;97.60;;;;;;5053846;28;20456;-86
2023/09/15 01:10:37;;;;;;;7.38;5.60;;;16.00;97.60;;;;;;5025879;28;20017;-86
2023/09/15 01:13:04;;;;;;;9.32;5.63;;;16.00;97.60;;;;;;5016744;28;20120;-86
2023/09/15 01:15:31;;;;;;;6.45;5.13;;;15.90;97.70;;;;;;5013474;28;20032;-85
2023/09/15 01:17:57;;;;;;;7.20;5.45;;;15.90;97.70;;;;;;5035795;28;20048;-86
2023/09/15 01:20:39;;;;;;;9.43;6.05;;;15.80;97.70;;;;;;5037010;28;20056;-86
2023/09/15 01:23:08;;;;;;;6.50;5.57;;;15.80;97.80;;;;;;5050370;28;20009;-86
2023/09/15 01:26:08;;;;;;;7.38;5.50;;;15.70;97.80;;;;;;5078169;28;20017;-85
2023/09/15 01:28:58;;;;;;;8.35;5.63;;;15.70;97.90;;;;;;5078089;28;20045;-86
2023/09/15 01:31:24;;;;;;;8.98;5.57;;;15.70;98.20;;;;;;5059839;28;20009;-85
2023/09/15 01:33:54;;;;;;;6.65;5.30;;;15.70;97.90;;;;;;5028251;28;20457;-86
2023/09/15 01:36:20;;;;;;;7.32;5.88;;;15.70;97.90;;;;;;5020130;28;20044;-85
2023/09/15 01:38:45;;;;;;;7.65;5.28;;;15.60;97.90;;;;;;5036282;28;20353;-85
2023/09/15 01:41:11;;;;;;;6.32;5.43;;;15.60;97.90;;;;;;5029379;28;20468;-86
2023/09/15 01:43:36;;;;;;;6.68;5.50;;;15.60;98.00;;;;;;4983228;28;20064;-86
2023/09/15 01:46:02;;;;;;;6.63;5.22;;;15.60;98.00;;;;;;5012636;28;20035;-86
2023/09/15 01:48:29;;;;;;;7.88;5.28;;;15.60;98.00;;;;;;5035378;28;20033;-86
2023/09/15 01:50:57;;;;;;;9.40;5.70;;;15.60;98.00;;;;;;5034922;28;20021;-86
2023/09/15 01:53:23;;;;;;;7.10;5.50;;;15.60;98.10;;;;;;5053514;28;20017;-86
2023/09/15 01:55:50;;;;;;;8.07;5.68;;;15.60;98.10;;;;;;5035824;28;20032;-86
2023/09/15 01:58:18;;;;;;;6.55;5.22;;;15.50;98.00;;;;;;5018318;28;20376;-85
2023/09/15 02:00:43;;;;;;;8.27;5.93;;;15.50;98.10;;;;;;5053113;28;20045;-85
2023/09/15 02:03:09;;;;;;;9.77;5.75;;;15.50;98.10;;;;;;5053020;28;20025;-86
2023/09/15 02:05:35;;;;;;;8.60;5.88;;;15.50;98.10;;;;;;5018756;28;20029;-85
2023/09/15 02:08:00;;;;;;;7.55;5.38;;;15.50;98.10;;;;;;5035028;28;20021;-86
2023/09/15 02:10:26;;;;;;;7.72;5.43;;;15.50;98.10;;;;;;5018330;28;20090;-86
2023/09/15 02:12:52;;;;;;;8.77;5.55;;;15.50;98.10;;;;;;5035476;28;20464;-85
2023/09/15 02:15:17;;;;;;;7.07;5.63;;;15.40;98.10;;;;;;5035310;28;20017;-86
2023/09/15 02:17:43;;;;;;;7.32;5.32;;;15.40;98.20;;;;;;5035114;28;20036;-86
2023/09/15 02:20:11;;;;;;;5.72;5.15;;;15.40;98.20;;;;;;5052658;28;20025;-86
2023/09/15 02:22:46;;;;;;;7.97;6.13;;;15.40;98.20;;;;;;5035001;28;20028;-86
2023/09/15 02:25:12;;;;;;;7.88;5.93;;;15.30;98.20;;;;;;5034826;28;20024;-85
2023/09/15 02:27:38;;;;;;;7.25;5.43;;;15.40;98.30;;;;;;5054823;28;20522;-86
2023/09/15 02:30:08;;;;;;;9.40;5.32;;;15.30;98.30;;;;;;5021721;28;20021;-86
2023/09/15 02:32:34;;;;;;;7.38;5.45;;;15.30;98.30;;;;;;5038272;28;20017;-85
2023/09/15 02:34:59;;;;;;;8.40;5.80;;;15.30;98.40;;;;;;5023475;28;20079;-85
2023/09/15 02:37:25;;;;;;;9.35;4.88;;;15.30;98.40;;;;;;5030641;28;20083;-86
2023/09/15 02:39:51;;;;;;;6.65;5.22;;;15.30;98.40;;;;;;5051107;28;20445;-86
2023/09/15 02:42:16;;;;;;;8.43;5.15;;;15.20;98.40;;;;;;5031317;28;20102;-85
2023/09/15 02:44:42;;;;;;;6.25;5.28;;;15.30;98.40;;;;;;5002324;28;20055;-86
2023/09/15 02:47:08;;;;;;;9.55;5.00;;;15.20;98.40;;;;;;5014159;28;20116;-86
2023/09/15 02:49:34;;;;;;;6.93;4.97;;;15.20;98.40;;;;;;5021632;28;20163;-86
2023/09/15 02:52:01;;;;;;;7.70;5.20;;;15.20;98.40;;;;;;5056415;28;20025;-85
2023/09/15 02:54:27;;;;;;;7.05;5.45;;;15.20;98.50;;;;;;5021327;28;20036;-85
2023/09/15 02:56:53;;;;;;;6.35;5.15;;;15.20;98.50;;;;;;5038616;28;20033;-85
2023/09/15 02:59:18;;;;;;;6.63;5.43;;;15.10;98.50;;;;;;5022761;28;20108;-85
2023/09/15 03:01:44;;;;;;;7.13;5.25;;;15.10;98.50;;;;;;5049372;28;20078;-86
2023/09/15 03:04:09;;;;;;;7.32;5.43;;;15.10;98.50;;;;;;5061298;28;20025;-86
2023/09/15 03:06:35;;;;;;;7.18;4.75;;;15.10;98.50;;;;;;5041874;28;20033;-86
2023/09/15 03:09:01;;;;;;;6.60;4.97;;;15.10;98.50;;;;;;5046693;28;20024;-85
2023/09/15 03:11:26;;;;;;;6.95;5.18;;;15.10;98.60;;;;;;5056538;28;20037;-85
2023/09/15 03:13:52;;;;;;;7.40;5.18;;;15.00;98.60;;;;;;5044269;28;20021;-85
2023/09/15 03:16:18;;;;;;;5.80;4.60;;;15.00;98.90;;;;;;5053370;28;20029;-85
2023/09/15 03:18:46;;;;;;;6.97;4.75;;;15.00;98.60;;;;;;5039189;28;20364;-85
2023/09/15 03:21:12;;;;;;;7.57;4.97;;;15.00;98.60;;;;;;5038469;28;20036;-86
2023/09/15 03:23:41;;;;;;;6.93;5.20;;;14.90;98.60;;;;;;5038359;28;20047;-86
2023/09/15 03:26:07;;;;;;;6.57;5.00;;;14.90;98.60;;;;;;5037609;28;20032;-85
2023/09/15 03:28:35;;;;;;;9.60;5.50;;;14.90;98.60;;;;;;5037525;28;20484;-86
2023/09/15 03:31:03;;;;;;;7.55;4.97;;;14.90;98.60;;;;;;5037424;28;20017;-85
2023/09/15 03:33:30;;;;;;;5.78;4.78;;;14.90;98.70;;;;;;5055260;28;20017;-86
2023/09/15 03:35:57;;;;;;;7.90;4.82;;;14.90;98.70;;;;;;5037620;28;20019;-86
2023/09/15 03:38:23;;;;;;;7.03;4.70;;;14.90;98.70;;;;;;5036607;28;20028;-86
2023/09/15 03:40:48;;;;;;;8.18;5.15;;;14.90;98.70;;;;;;5037477;28;20025;-85
2023/09/15 03:43:17;;;;;;;8.55;5.30;;;14.90;98.70;;;;;;5020616;28;20021;-86
2023/09/15 03:45:44;;;;;;;5.13;4.63;;;14.80;98.70;;;;;;5037401;28;20534;-85
2023/09/15 03:48:10;;;;;;;7.85;4.72;;;14.80;98.70;;;;;;5028854;28;20360;-85
2023/09/15 03:50:35;;;;;;;6.57;5.15;;;14.80;98.80;;;;;;5033686;28;20100;-85
2023/09/15 03:53:02;;;;;;;7.63;4.47;;;14.80;98.80;;;;;;5037285;28;20021;-85
2023/09/15 03:55:29;;;;;;;5.75;4.70;;;14.80;98.80;;;;;;5037156;28;20041;-85
2023/09/15 03:57:55;;;;;;;8.00;5.35;;;14.70;98.80;;;;;;5021023;28;20507;-85
2023/09/15 04:00:21;;;;;;;7.85;5.07;;;14.70;98.80;;;;;;5036552;28;20400;-85
2023/09/15 04:02:48;;;;;;;7.03;5.05;;;14.70;98.80;;;;;;5020020;28;20056;-85
2023/09/15 04:05:15;;;;;;;9.15;5.30;;;14.70;98.80;;;;;;5036657;28;20044;-84
2023/09/15 04:07:41;;;;;;;6.22;5.13;;;14.60;98.80;;;;;;5037370;28;20025;-85
2023/09/15 04:10:07;;;;;;;8.15;4.78;;;14.60;98.90;;;;;;5036814;28;20079;-85
2023/09/15 04:12:34;;;;;;;7.55;4.75;;;14.60;98.90;;;;;;5020388;28;20025;-85
2023/09/15 04:15:00;;;;;;;7.25;5.22;;;14.60;98.90;;;;;;5054565;28;20511;-85
2023/09/15 04:17:26;;;;;;;8.38;4.75;;;14.60;98.90;;;;;;5054081;28;20021;-85
2023/09/15 04:19:51;;;;;;;6.93;4.47;;;14.60;99.00;;;;;;5036135;28;20108;-84
2023/09/15 04:22:17;;;;;;;5.20;3.80;;;14.60;99.00;;;;;;5020026;28;20048;-84
2023/09/15 04:24:43;;;;;;;5.97;5.03;;;14.60;99.00;;;;;;5037189;28;20021;-85
2023/09/15 04:27:08;;;;;;;7.32;4.60;;;14.60;99.00;;;;;;5035824;28;20030;-84
2023/09/15 04:29:49;;;;;;;5.60;4.97;;;14.60;99.10;;;;;;5016696;28;20085;-86
2023/09/15 04:32:15;;;;;;;8.88;5.32;;;14.50;99.10;;;;;;5017177;28;20017;-85
2023/09/15 04:34:41;;;;;;;7.00;4.63;;;14.50;99.10;;;;;;5019041;28;20024;-85
2023/09/15 04:37:07;;;;;;;7.03;4.45;;;14.50;99.10;;;;;;5019667;28;20202;-86
2023/09/15 04:39:33;;;;;;;7.63;5.38;;;14.50;99.10;;;;;;5054340;28;20025;-85
2023/09/15 04:41:58;;;;;;;6.20;4.50;;;14.50;99.10;;;;;;5020292;28;20354;-84
2023/09/15 04:44:24;;;;;;;6.72;4.95;;;14.50;99.20;;;;;;5036982;28;20080;-85
2023/09/15 04:46:49;;;;;;;7.15;4.60;;;14.50;99.10;;;;;;5028275;28;20021;-84
2023/09/15 04:49:15;;;;;;;7.72;5.00;;;14.50;99.10;;;;;;5057069;28;20020;-85
2023/09/15 04:51:41;;;;;;;6.90;4.80;;;14.50;99.10;;;;;;5041296;28;20036;-85
2023/09/15 04:54:07;;;;;;;6.88;4.93;;;14.40;99.10;;;;;;5059829;28;20076;-85
2023/09/15 04:56:32;;;;;;;7.68;4.60;;;14.40;99.20;;;;;;5060387;28;20072;-85
2023/09/15 04:58:58;;;;;;;8.05;4.82;;;14.40;99.20;;;;;;5028820;28;20021;-85
2023/09/15 05:01:24;;;;;;;6.88;5.03;;;14.50;99.20;;;;;;5035944;28;20080;-84
2023/09/15 05:03:49;;;;;;;6.57;4.68;;;14.50;99.20;;;;;;5019747;28;20025;-84
2023/09/15 05:06:15;;;;;;;9.43;5.55;;;14.50;99.20;;;;;;5019478;28;20567;-84
2023/09/15 05:08:41;;;;;;;8.30;5.07;;;14.50;99.30;;;;;;5018112;28;20033;-83
2023/09/15 05:11:07;;;;;;;5.70;4.75;;;14.50;99.30;;;;;;5006787;28;20062;-84
2023/09/15 05:13:32;;;;;;;7.15;4.97;;;14.40;99.20;;;;;;5018863;28;20107;-83
2023/09/15 05:15:58;;;;;;;6.05;4.78;;;14.50;99.30;;;;;;5032313;28;20036;-84
2023/09/15 05:18:24;;;;;;;7.88;4.90;;;14.50;99.20;;;;;;5034378;28;20032;-84
2023/09/15 05:20:49;;;;;;;7.32;4.60;;;14.50;99.20;;;;;;5034773;28;20028;-85
2023/09/15 05:23:15;;;;;;;8.63;4.45;;;14.40;99.20;;;;;;5018255;28;20400;-83
2023/09/15 05:25:41;;;;;;;6.95;4.63;;;14.40;99.30;;;;;;5025440;28;20044;-83
2023/09/15 05:28:06;;;;;;;6.55;4.50;;;14.40;99.30;;;;;;5020093;28;20037;-84
2023/09/15 05:30:32;;;;;;;8.82;4.95;;;14.40;99.30;;;;;;5035265;28;20024;-83
2023/09/15 05:32:58;;;;;;;7.65;4.75;;;14.40;99.30;;;;;;5034538;28;20071;-84
2023/09/15 05:35:27;;;;;;;7.78;5.28;;;14.50;99.30;;;;;;5018371;28;20519;-82
2023/09/15 05:37:52;;;;;;;7.95;5.22;;;14.40;99.30;;;;;;5035421;28;20025;-84
2023/09/15 05:40:18;;;;;;;6.63;5.03;;;14.40;99.30;;;;;;5031462;28;20024;-82
2023/09/15 05:42:44;;;;;;;9.10;5.30;;;14.40;99.30;;;;;;5035125;28;20021;-83
2023/09/15 05:45:09;;;;;;;8.02;5.10;;;14.40;99.30;;;;;;5035271;28;20072;-83
2023/09/15 05:47:35;;;;;;;6.35;4.65;;;14.50;99.40;;;;;;5018680;28;20436;-83
2023/09/15 05:50:04;;;;;;;6.95;4.78;;;14.50;99.40;;;;;;5053225;28;20103;-83
2023/09/15 05:52:30;;;;;;;8.27;5.13;;;14.50;99.40;;;;;;5052998;28;20128;-83
2023/09/15 05:54:55;;;;;;;6.38;5.00;;;14.50;99.60;;;;;;5052620;28;20025;-84
2023/09/15 05:57:21;;;;;;;9.07;5.35;;;14.50;99.30;;;;;;5034627;28;20029;-84
2023/09/15 05:59:47;;;;;;;9.40;5.60;;;14.50;99.40;;;;;;5000123;28;20429;-83
2023/09/15 06:02:14;;;;;;;6.10;4.95;;;14.50;99.40;;;;;;5005269;28;20045;-83
2023/09/15 06:04:42;;;;;;;6.30;4.97;;;14.50;99.40;;;;;;5006208;28;20056;-84
2023/09/15 06:07:08;;;;;;;8.73;5.32;;;14.60;99.40;;;;;;5039587;28;20120;-83
2023/09/15 06:09:34;;;;;;;7.95;5.03;;;14.50;99.40;;;;;;5038473;28;20108;-83
2023/09/15 06:11:59;;;;;;;7.32;5.72;;;14.50;99.40;;;;;;5039337;28;20457;-83
2023/09/15 06:14:25;;;;;;;10.27;5.20;;;14.60;99.40;;;;;;5022635;28;20090;-83
2023/09/15 06:16:50;;;;;;;6.50;4.88;;;14.60;99.40;;;;;;5022338;28;20024;-84
2023/09/15 06:19:16;;;;;;;6.28;4.90;;;14.60;99.40;;;;;;5038689;28;20051;-83
2023/09/15 06:21:42;;;;;;;7.53;5.22;;;14.60;99.40;;;;;;5038642;28;20469;-83
2023/09/15 06:24:07;;;;;;;6.93;4.63;;;14.70;99.40;;;;;;5022276;28;20028;-84
2023/09/15 06:26:34;;;;;;;8.57;5.75;;;14.70;99.50;;;;;;5038716;28;20029;-83
2023/09/15 06:28:59;;;;;;;8.43;5.18;;;14.70;99.50;;;;;;5022809;28;20032;-84
2023/09/15 06:31:25;;;;;;;7.68;5.10;;;14.70;99.40;;;;;;5038758;28;20025;-84
2023/09/15 06:33:50;;;;;;;6.60;5.10;;;14.70;99.40;;;;;;5022658;28;20028;-83
2023/09/15 06:36:16;;;;;;;7.35;4.70;;;14.70;99.50;;;;;;5045941;28;20021;-83
2023/09/15 06:38:42;;;;;;;7.28;4.85;;;14.80;99.50;;;;;;5063406;28;20021;-81
2023/09/15 06:41:07;;;;;;;8.48;5.18;;;14.80;99.50;;;;;;5054332;28;20029;-83
2023/09/15 06:43:33;;;;;;;6.13;5.07;;;14.80;99.50;;;;;;5020222;28;20026;-83
2023/09/15 06:45:59;;;;;;;8.70;5.50;;;14.80;99.50;;;;;;5051348;28;20037;-85
2023/09/15 06:48:24;;;;;;;10.27;5.63;;;14.90;99.60;;;;;;5022422;28;20029;-85
2023/09/15 06:50:50;;;;;;;7.05;5.30;;;15.00;99.60;;;;;;5021743;28;20049;-85
2023/09/15 06:53:16;;;;;;;6.93;4.97;;;15.00;99.60;;;;;;5022181;28;20385;-84
2023/09/15 06:55:41;;;;;;;9.95;5.50;;;15.10;99.60;;;;;;5021535;28;20377;-82
2023/09/15 06:58:07;;;;;;;6.47;5.18;;;15.10;99.60;;;;;;5038279;28;20048;-84
2023/09/15 07:00:35;;;;;;;9.77;5.50;;;15.20;99.60;;;;;;5038454;28;20024;-85
2023/09/15 07:03:01;;;;;;;6.97;5.10;;;15.20;99.50;;;;;;5037196;28;20053;-84
2023/09/15 07:05:26;;;;;;;7.20;6.18;;;15.30;99.50;;;;;;5034649;28;20121;-84
2023/09/15 07:07:52;;;;;;;8.82;5.57;;;15.30;99.80;;;;;;5045417;28;20028;-85
2023/09/15 07:10:17;;;;;;;7.65;5.32;;;15.30;99.50;;;;;;5021742;28;20025;-84
2023/09/15 07:12:43;;;;;;;7.85;5.30;;;15.40;99.50;;;;;;5020464;28;20029;-84
2023/09/15 07:15:09;;;;;;;6.78;5.28;;;15.40;99.50;;;;;;5037925;28;20025;-85
2023/09/15 07:17:35;;;;;;;8.27;5.38;;;15.50;99.50;;;;;;5037610;28;20025;-85
2023/09/15 07:20:00;;;;;;;7.80;4.82;;;15.50;99.40;;;;;;5021070;28;20131;-85
2023/09/15 07:22:27;;;;;;;7.10;4.93;;;15.50;99.40;;;;;;5004324;28;20075;-85
2023/09/15 07:24:53;;;;;;;9.27;4.50;;;15.60;99.40;;;;;;5037657;28;20059;-85
2023/09/15 07:27:18;;;;;;;9.73;4.78;;;15.60;99.40;;;;;;5021469;28;20053;-85
2023/09/15 07:29:44;;;;;;;6.72;4.63;;;15.70;99.40;;;;;;5021296;28;20094;-85
2023/09/15 07:32:10;;;;;;;7.18;5.07;;;15.80;99.40;;;;;;5055584;28;20024;-85
2023/09/15 07:34:35;;;;;;;7.40;4.60;;;15.80;99.30;;;;;;5021112;28;20017;-85
2023/09/15 07:37:02;;;;;;;7.07;4.72;;;15.90;99.30;;;;;;5037604;28;20029;-84
2023/09/15 07:39:29;;;;;;;9.07;5.15;;;16.00;99.30;;;;;;5037003;28;20029;-85
2023/09/15 07:41:55;;;;;;;7.65;4.47;;;16.00;99.20;;;;;;5054808;28;20021;-85
2023/09/15 07:44:20;;;;;;;8.80;4.90;;;16.10;99.20;;;;;;5055402;28;20468;-85
2023/09/15 07:46:46;;;;;;;7.55;4.80;;;16.10;99.20;;;;;;5020737;28;20033;-85
2023/09/15 07:49:12;;;;;;;10.48;4.57;;;16.20;99.20;;;;;;5037533;28;20021;-85
2023/09/15 07:51:37;;;;;;;8.18;4.60;;;16.20;99.10;;;;;;5020787;28;20028;-84
2023/09/15 07:54:03;;;;;;;8.32;4.57;;;16.30;99.10;;;;;;5037421;28;20104;-84
2023/09/15 07:56:29;;;;;;;6.90;4.50;;;16.40;99.00;;;;;;5003775;28;20035;-85
2023/09/15 07:58:54;;;;;;;7.32;4.35;;;16.40;99.00;;;;;;5055297;28;20060;-85
2023/09/15 08:01:20;;;;;;;6.57;4.55;;;16.50;99.00;;;;;;5054789;28;20053;-86
2023/09/15 08:03:46;;;;;;;7.97;4.35;;;16.60;99.00;;;;;;5020642;28;20099;-85
2023/09/15 08:06:12;;;;;;;7.13;4.00;;;16.60;98.90;;;;;;5037600;28;20080;-86
2023/09/15 08:08:38;;;;;;;9.82;5.00;;;16.70;98.90;;;;;;5037432;28;20048;-85
2023/09/15 08:11:03;;;;;;;6.45;4.10;;;16.80;98.80;;;;;;5037233;28;20025;-86
2023/09/15 08:13:29;;;;;;;8.25;4.50;;;16.80;98.70;;;;;;5039016;28;20424;-86
2023/09/15 08:15:55;;;;;;;7.80;4.38;;;16.90;98.70;;;;;;5042628;28;20009;-85
2023/09/15 08:18:21;;;;;;;6.70;5.00;;;17.00;98.70;;;;;;5044927;28;20005;-86
2023/09/15 08:20:47;;;;;;;5.30;4.00;;;17.00;98.60;;;;;;5079011;28;20017;-84
2023/09/15 08:23:13;;;;;;;8.57;4.40;;;17.10;98.60;;;;;;5034894;28;20030;-85
2023/09/15 08:25:40;;;;;;;6.32;4.22;;;17.10;98.60;;;;;;5027013;28;20090;-86
2023/09/15 08:28:06;;;;;;;8.10;4.60;;;17.20;98.60;;;;;;5036791;28;20326;-86
2023/09/15 08:30:36;;;;;;;8.43;4.50;;;17.30;98.50;;;;;;5020885;28;20139;-86
2023/09/15 08:33:05;;;;;;;8.32;4.75;;;17.30;98.50;;;;;;5036723;28;20062;-86
2023/09/15 08:35:31;;;;;;;8.18;5.05;;;17.40;98.40;;;;;;5020658;28;20033;-86
2023/09/15 08:37:57;;;;;;;6.70;4.50;;;17.50;98.40;;;;;;5054492;28;20492;-86
2023/09/15 08:40:22;;;;;;;9.65;4.88;;;17.50;98.30;;;;;;5036552;28;20116;-86
2023/09/15 08:42:48;;;;;;;6.47;3.90;;;17.50;98.40;;;;;;5035975;28;20452;-85
2023/09/15 08:45:14;;;;;;;6.50;4.28;;;17.50;98.40;;;;;;5036178;28;20037;-86
2023/09/15 08:47:43;;;;;;;6.15;4.25;;;17.60;98.40;;;;;;5036278;28;20452;-85
2023/09/15 08:50:09;;;;;;;5.88;3.80;;;17.60;98.40;;;;;;5053946;28;20053;-86
2023/09/15 08:52:36;;;;;;;5.25;3.83;;;17.70;98.40;;;;;;5035637;28;20099;-86
2023/09/15 08:55:03;;;;;;;5.90;4.13;;;17.80;98.40;;;;;;5019467;28;20049;-86
2023/09/15 08:57:30;;;;;;;5.60;3.92;;;17.80;98.30;;;;;;5019748;28;20460;-86
2023/09/15 08:59:59;;;;;;;8.35;4.15;;;17.90;98.20;;;;;;5036074;28;20017;-86
2023/09/15 09:02:26;;;;;;;8.93;4.32;;;17.90;98.40;;;;;;5019235;28;20049;-86
2023/09/15 09:04:51;;;;;;;8.63;4.40;;;18.00;98.10;;;;;;5036153;28;20032;-85
2023/09/15 09:07:21;;;;;;;7.22;4.03;;;18.10;98.10;;;;;;5019574;28;20043;-86
2023/09/15 09:09:48;;;;;;;6.38;3.28;;;18.10;98.00;;;;;;5035483;28;20511;-86
2023/09/15 09:12:14;;;;;;;6.43;3.75;;;18.20;98.10;;;;;;5053625;28;20021;-86
2023/09/15 09:14:44;;;;;;;5.97;3.83;;;18.30;97.90;;;;;;5036037;28;20075;-86
2023/09/15 09:17:11;;;;;;;5.72;3.60;;;18.30;97.90;;;;;;5033476;28;20021;-87
2023/09/15 09:19:46;;;;;;;8.52;4.13;;;18.40;97.80;;;;;;5047375;28;20025;-86
2023/09/15 09:22:16;;;;;;;5.65;3.63;;;18.40;97.70;;;;;;5015844;28;20122;-86
2023/09/15 09:24:42;;;;;;;8.77;3.10;;;18.50;97.60;;;;;;5022848;28;20445;-86
2023/09/15 09:27:09;;;;;;;5.13;3.50;;;18.50;97.60;;;;;;5018369;28;20051;-86
2023/09/15 09:29:36;;;;;;;5.35;3.38;;;18.60;97.60;;;;;;5036682;28;20025;-85
2023/09/15 09:32:01;;;;;;;5.50;3.50;;;18.70;97.60;;;;;;5033994;28;20456;-87
2023/09/15 09:34:27;;;;;;;5.93;3.47;;;18.70;97.50;;;;;;5000053;28;20025;-86
2023/09/15 09:36:53;;;;;;;5.70;3.50;;;18.80;97.40;;;;;;5016350;28;20040;-84
2023/09/15 09:39:19;;;;;;;7.88;3.53;;;18.80;97.40;;;;;;5034101;28;20033;-86
2023/09/15 09:41:45;;;;;;;4.97;3.13;;;18.90;97.40;;;;;;5052821;28;20029;-84
2023/09/15 09:44:14;;;;;;;7.47;3.42;;;19.00;97.30;;;;;;5033652;28;20100;-85
2023/09/15 09:46:41;;;;;;;6.35;3.85;;;19.00;97.40;;;;;;5034368;28;20036;-86
2023/09/15 09:49:07;;;;;;;8.40;3.90;;;19.10;97.10;;;;;;5042647;28;20079;-86
2023/09/15 09:51:35;;;;;;;5.72;3.50;;;19.10;96.90;;;;;;5015888;28;20350;-86
2023/09/15 09:54:01;;;;;;;5.88;3.22;;;19.20;96.90;;;;;;5053192;28;20452;-86
2023/09/15 09:56:32;;;;;;;7.38;3.83;;;19.20;96.80;;;;;;5030708;28;20029;-86
2023/09/15 09:59:10;;;;;;;4.85;2.88;;;19.30;96.80;;;;;;5053586;28;20017;-86
2023/09/15 10:01:36;;;;;;;5.43;2.80;;;19.40;96.80;;;;;;5054344;28;20036;-86
2023/09/15 10:04:05;;;;;;;5.78;2.95;;;19.40;96.70;;;;;;5044234;28;20040;-85
2023/09/15 10:06:33;;;;;;;5.25;3.10;;;19.50;96.60;;;;;;5077424;28;20043;-85
2023/09/15 10:08:59;;;;;;;5.07;2.85;;;19.50;96.50;;;;;;5060421;28;20009;-83
2023/09/15 10:11:26;;;;;;;4.70;2.60;;;19.60;96.40;;;;;;5060107;28;20017;-85
2023/09/15 10:13:53;;;;;;;4.28;2.70;;;19.60;96.40;;;;;;5060208;28;20013;-86
2023/09/15 10:16:19;;;;;;;4.70;3.30;;;19.70;96.40;;;;;;5018249;28;20025;-85
2023/09/15 10:18:45;;;;;;;3.08;2.30;;;19.80;96.40;;;;;;5006149;28;20491;-86
2023/09/15 10:21:12;;;;;;;5.63;2.92;;;19.90;96.40;;;;;;5035626;28;20048;-86
2023/09/15 10:23:39;;;;;;;5.00;3.00;;;19.90;96.10;;;;;;5002820;28;20048;-86
2023/09/15 10:26:09;;;;;;;5.40;3.17;;;20.00;95.70;;;;;;5034879;28;20029;-85
2023/09/15 10:28:34;;;;;;;4.57;2.58;;;20.00;95.70;;;;;;5034755;28;20112;-87
2023/09/15 10:31:00;;;;;;;4.80;3.10;;;20.00;95.70;;;;;;5034641;28;20102;-83
2023/09/15 10:33:26;;;;;;;5.38;3.13;;;20.10;95.40;;;;;;5034986;28;20139;-86
2023/09/15 10:35:52;;;;;;;4.68;3.00;;;20.10;95.30;;;;;;5052725;28;20029;-87
2023/09/15 10:38:28;;;;;;;4.38;3.00;;;20.10;95.20;;;;;;5018584;28;20052;-87
2023/09/15 10:40:54;;;;;;;6.90;3.25;;;20.20;95.20;;;;;;5034855;28;20496;-86
2023/09/15 10:43:20;;;;;;;4.45;3.15;;;20.20;95.10;;;;;;5034935;28;20029;-85
2023/09/15 10:46:06;;;;;;;4.70;3.22;;;20.30;95.10;;;;;;5017979;28;20457;-87
2023/09/15 10:48:46;;;;;;;4.15;3.05;;;20.30;95.10;;;;;;5033438;28;20083;-86
2023/09/15 10:51:15;;;;;;;4.93;3.13;;;20.40;94.80;;;;;;5036656;28;20026;-86
2023/09/15 10:53:48;;;;;;;5.45;3.40;;;20.40;94.80;;;;;;5019094;28;20031;-86
2023/09/15 10:56:16;;;;;;;5.22;3.95;;;20.50;94.70;;;;;;5019146;28;20029;-87
2023/09/15 10:58:42;;;;;;;6.22;2.90;;;20.50;94.40;;;;;;5055910;28;20017;-87
2023/09/15 11:01:10;;;;;;;6.47;3.53;;;20.60;94.50;;;;;;5055721;28;20112;-87
2023/09/15 11:03:37;;;;;;;6.05;3.53;;;20.60;94.50;;;;;;5056276;28;20487;-86
2023/09/15 11:06:08;;;;;;;4.93;3.08;;;20.60;94.50;;;;;;5021992;28;20029;-86
2023/09/15 11:08:34;;;;;;;6.15;4.22;;;20.70;94.60;;;;;;5037894;28;20112;-86
2023/09/15 11:11:07;;;;;;;5.97;3.13;;;20.70;94.50;;;;;;5038689;28;20113;-87
2023/09/15 11:13:33;;;;;;;6.65;3.70;;;20.80;94.40;;;;;;5056295;28;20067;-86
2023/09/15 11:15:59;;;;;;;4.63;3.30;;;20.80;94.40;;;;;;5037760;28;20067;-86
2023/09/15 11:18:26;;;;;;;5.20;3.30;;;20.90;94.40;;;;;;5037931;28;20028;-87
2023/09/15 11:20:52;;;;;;;5.00;3.10;;;20.90;94.30;;;;;;5038173;28;20058;-86
2023/09/15 11:23:18;;;;;;;4.28;3.17;;;21.00;94.30;;;;;;5037416;28;20471;-86
2023/09/15 11:25:46;;;;;;;4.75;3.05;;;21.00;94.30;;;;;;5037824;28;20108;-87
2023/09/15 11:28:16;;;;;;;3.40;3.10;;;21.10;94.30;;;;;;5037903;28;20028;-86
2023/09/15 11:30:42;;;;;;;6.47;3.05;;;21.10;94.30;;;;;;5019643;28;20026;-86
2023/09/15 11:33:08;;;;;;;5.93;3.03;;;21.20;94.30;;;;;;5017814;28;20116;-84
2023/09/15 11:35:35;;;;;;;5.40;4.07;;;21.20;94.10;;;;;;5020174;28;20061;-85
2023/09/15 11:38:04;;;;;;;5.28;3.40;;;21.30;94.10;;;;;;5037679;28;20017;-86
2023/09/15 11:40:30;;;;;;;4.95;3.50;;;21.30;93.90;;;;;;5032364;28;20524;-87
2023/09/15 11:42:59;;;;;;;6.28;3.70;;;21.40;93.70;;;;;;5005246;28;20048;-87
2023/09/15 11:45:27;;;;;;;6.38;2.83;;;21.40;93.60;;;;;;5037263;28;20055;-86
2023/09/15 11:47:55;;;;;;;14.48;4.68;;;21.40;93.60;;;;;;5055794;28;20028;-86
2023/09/15 11:50:22;;;;;;;10.10;3.55;;;21.50;93.70;;;;;;5020425;28;20025;-86
2023/09/15 11:52:48;;;;;;;9.20;3.67;;;21.50;93.80;;;;;;5025423;28;20039;-86
2023/09/15 11:55:21;;;;;;;5.63;3.00;;;21.50;93.80;;;;;;5018711;28;20112;-86
2023/09/15 11:57:47;;;;;;;6.95;2.95;;;21.60;93.80;;;;;;5055372;28;20021;-84
2023/09/15 12:00:18;;;;;;;3.35;2.60;;;21.60;93.80;;;;;;5012960;28;20018;-85
2023/09/15 12:02:43;;;;;;;;;;;21.60;93.80;;;;;;5059812;28;20042;-86
2023/09/15 12:05:10;;;;;;;5.40;3.03;;;21.70;93.70;;;;;;5075147;28;19961;-87
2023/09/15 12:07:36;;;;;;;6.38;2.90;;;21.70;93.70;;;;;;5079352;28;20077;-84
2023/09/15 12:10:03;;;;;;;6.63;3.13;;;21.70;93.80;;;;;;5061902;28;20017;-86
2023/09/15 12:12:29;;;;;;;12.18;4.57;;;21.70;93.80;;;;;;5060507;28;20071;-86
2023/09/15 12:15:00;;;;;;;22.40;6.22;;;21.80;93.60;;;;;;5027418;28;20021;-86
2023/09/15 12:17:29;;;;;;;10.77;4.07;;;21.90;93.70;;;;;;5021136;28;20025;-86
2023/09/15 12:19:59;;;;;;;9.00;3.70;;;21.90;93.60;;;;;;5037139;28;20017;-87
2023/09/15 12:22:41;;;;;;;5.07;3.30;;;21.90;93.50;;;;;;5054447;28;20129;-86
2023/09/15 12:25:10;;;;;;;5.80;2.90;;;22.00;93.50;;;;;;5036901;28;20052;-86
2023/09/15 12:27:41;;;;;;;5.45;3.10;;;22.00;93.50;;;;;;5036474;28;20460;-87
2023/09/15 12:30:11;;;;;;;4.30;2.78;;;22.00;93.50;;;;;;5054905;28;20017;-86
2023/09/15 12:32:37;;;;;;;4.70;3.07;;;22.10;93.50;;;;;;5036366;28;20107;-87
2023/09/15 12:35:14;;;;;;;4.63;3.50;;;22.10;93.30;;;;;;5023631;28;20116;-88
2023/09/15 12:37:44;;;;;;;5.45;3.22;;;22.10;93.10;;;;;;5016491;28;20036;-87
2023/09/15 12:40:14;;;;;;;5.45;3.05;;;22.10;93.10;;;;;;5032195;28;20449;-86
2023/09/15 12:42:41;;;;;;;5.57;3.08;;;22.10;93.10;;;;;;5017865;28;20424;-86
2023/09/15 12:45:07;;;;;;;3.70;2.85;;;22.10;93.20;;;;;;5016478;28;20071;-86
2023/09/15 12:47:33;;;;;;;4.60;3.15;;;22.20;93.20;;;;;;5047205;28;20025;-86